createdAt,value
2022-09-01T00:00:44.622Z,0.00
2022-09-01T00:01:44.610Z,0.00
2022-09-01T00:02:44.642Z,0.00
2022-09-01T00:03:44.585Z,0.00
2022-09-01T00:04:44.633Z,0.00
2022-09-01T00:05:44.583Z,0.00
2022-09-01T00:06:44.561Z,0.00
2022-09-01T00:07:44.544Z,0.00
2022-09-01T00:08:44.542Z,0.00
2022-09-01T00:09:44.532Z,0.00
2022-09-01T00:10:44.516Z,0.00
2022-09-01T00:11:50.420Z,0.00
2022-09-01T00:12:45.501Z,0.00
2022-09-01T00:13:44.489Z,0.00
2022-09-01T00:14:44.475Z,0.00
2022-09-01T00:15:44.537Z,0.00
2022-09-01T00:16:44.454Z,0.00
2022-09-01T00:17:44.467Z,0.00
2022-09-01T00:18:44.439Z,0.00
2022-09-01T00:19:44.419Z,0.00
2022-09-01T00:20:44.407Z,0.00
2022-09-01T00:21:44.398Z,0.00
2022-09-01T00:22:44.395Z,0.00
2022-09-01T00:23:44.417Z,0.00
2022-09-01T00:24:44.375Z,0.00
2022-09-01T00:25:44.357Z,0.00
2022-09-01T00:26:44.350Z,0.00
2022-09-01T00:27:44.337Z,0.00
2022-09-01T00:28:44.328Z,0.00
2022-09-01T00:29:44.337Z,0.00
2022-09-01T00:30:44.383Z,0.00
2022-09-01T00:31:44.295Z,0.00
2022-09-01T00:32:44.288Z,0.00
2022-09-01T00:33:44.278Z,0.00
2022-09-01T00:34:44.269Z,0.00
2022-09-01T00:35:44.281Z,0.00
2022-09-01T00:36:44.252Z,0.00
2022-09-01T00:37:44.230Z,0.00
2022-09-01T00:38:44.231Z,0.00
2022-09-01T00:39:44.218Z,0.00
2022-09-01T00:40:44.286Z,0.00
2022-09-01T00:41:44.223Z,0.00
2022-09-01T00:42:44.189Z,0.00
2022-09-01T00:43:44.173Z,0.00
2022-09-01T00:44:44.172Z,0.00
2022-09-01T00:45:44.237Z,0.00
2022-09-01T00:46:49.925Z,0.00
2022-09-01T00:47:45.170Z,0.00
2022-09-01T00:48:44.122Z,0.00
2022-09-01T00:49:44.112Z,0.00
2022-09-01T00:50:44.103Z,0.00
2022-09-01T00:51:45.094Z,0.00
2022-09-01T00:52:44.084Z,0.00
2022-09-01T00:53:44.101Z,0.00
2022-09-01T00:54:44.068Z,0.00
2022-09-01T00:55:44.055Z,0.00
2022-09-01T00:56:45.612Z,0.00
2022-09-01T00:57:44.042Z,0.00
2022-09-01T00:58:44.035Z,0.00
2022-09-01T00:59:44.054Z,0.00
2022-09-01T01:00:44.013Z,0.00
2022-09-01T01:01:44.065Z,0.00
2022-09-01T01:02:44.032Z,0.00
2022-09-01T01:03:43.983Z,0.00
2022-09-01T01:04:43.974Z,0.00
2022-09-01T01:05:43.977Z,0.00
2022-09-01T01:06:43.954Z,0.00
2022-09-01T01:07:45.949Z,0.00
2022-09-01T01:08:43.926Z,0.00
2022-09-01T01:09:43.908Z,0.00
2022-09-01T01:10:43.907Z,0.00
2022-09-01T01:11:43.927Z,0.00
2022-09-01T01:12:43.896Z,0.00
2022-09-01T01:13:43.868Z,0.00
2022-09-01T01:14:45.839Z,0.00
2022-09-01T01:15:43.857Z,0.00
2022-09-01T01:16:43.889Z,0.00
2022-09-01T01:17:43.866Z,0.00
2022-09-01T01:18:43.833Z,0.00
2022-09-01T01:19:43.809Z,0.00
2022-09-01T01:20:43.809Z,0.00
2022-09-01T01:21:43.789Z,0.00
2022-09-01T01:22:43.789Z,0.00
2022-09-01T01:23:43.799Z,0.00
2022-09-01T01:24:43.770Z,0.00
2022-09-01T01:25:43.751Z,0.00
2022-09-01T01:26:43.751Z,0.00
2022-09-01T01:27:43.741Z,0.00
2022-09-01T01:28:43.723Z,0.00
2022-09-01T01:29:43.750Z,0.00
2022-09-01T01:30:43.759Z,0.00
2022-09-01T01:31:43.692Z,0.00
2022-09-01T01:32:43.698Z,0.00
2022-09-01T01:33:43.672Z,0.00
2022-09-01T01:34:43.667Z,0.00
2022-09-01T01:35:43.682Z,0.00
2022-09-01T01:36:43.643Z,0.00
2022-09-01T01:37:43.634Z,0.00
2022-09-01T01:38:43.622Z,0.00
2022-09-01T01:39:43.611Z,0.00
2022-09-01T01:40:43.664Z,0.00
2022-09-01T01:41:43.624Z,0.00
2022-09-01T01:42:43.583Z,0.00
2022-09-01T01:43:43.574Z,0.00
2022-09-01T01:44:43.564Z,0.00
2022-09-01T01:45:43.575Z,0.00
2022-09-01T01:46:43.542Z,0.00
2022-09-01T01:47:43.564Z,0.00
2022-09-01T01:48:43.523Z,0.00
2022-09-01T01:49:43.508Z,0.00
2022-09-01T01:50:43.497Z,0.00
2022-09-01T01:51:43.495Z,0.00
2022-09-01T01:52:45.472Z,0.00
2022-09-01T01:53:43.496Z,0.00
2022-09-01T01:54:43.467Z,0.00
2022-09-01T01:55:43.446Z,0.00
2022-09-01T01:56:43.444Z,0.00
2022-09-01T01:57:43.426Z,0.00
2022-09-01T01:58:43.425Z,0.00
2022-09-01T01:59:43.454Z,0.00
2022-09-01T02:00:43.395Z,0.00
2022-09-01T02:01:43.453Z,0.00
2022-09-01T02:02:43.409Z,0.00
2022-09-01T02:03:43.368Z,0.00
2022-09-01T02:04:43.369Z,0.00
2022-09-01T02:05:43.379Z,0.00
2022-09-01T02:06:43.339Z,0.00
2022-09-01T02:07:43.329Z,0.00
2022-09-01T02:08:43.319Z,0.00
2022-09-01T02:09:43.310Z,0.00
2022-09-01T02:10:43.307Z,0.00
2022-09-01T02:11:43.323Z,0.00
2022-09-01T02:12:43.279Z,0.00
2022-09-01T02:13:43.269Z,0.00
2022-09-01T02:14:43.262Z,0.00
2022-09-01T02:15:43.252Z,0.00
2022-09-01T02:16:43.265Z,0.00
2022-09-01T02:17:43.252Z,0.00
2022-09-01T02:18:43.218Z,0.00
2022-09-01T02:19:43.215Z,0.00
2022-09-01T02:20:43.200Z,0.00
2022-09-01T02:21:43.188Z,0.00
2022-09-01T02:22:43.171Z,0.00
2022-09-01T02:23:43.193Z,0.00
2022-09-01T02:24:43.153Z,0.00
2022-09-01T02:26:04.996Z,0.00
2022-09-01T02:26:44.141Z,0.00
2022-09-01T02:27:43.123Z,0.00
2022-09-01T02:28:43.127Z,0.00
2022-09-01T02:29:43.383Z,0.00
2022-09-01T02:30:43.148Z,0.00
2022-09-01T02:31:43.095Z,0.00
2022-09-01T02:32:43.083Z,0.00
2022-09-01T02:33:43.065Z,0.00
2022-09-01T02:34:43.054Z,0.00
2022-09-01T02:35:43.073Z,0.00
2022-09-01T02:36:43.044Z,0.00
2022-09-01T02:37:43.025Z,0.00
2022-09-01T02:38:43.023Z,0.00
2022-09-01T02:39:43.005Z,0.00
2022-09-01T02:40:43.042Z,0.00
2022-09-01T02:41:43.020Z,0.00
2022-09-01T02:42:42.976Z,0.00
2022-09-01T02:43:42.963Z,0.00
2022-09-01T02:44:42.958Z,0.00
2022-09-01T02:45:42.974Z,0.00
2022-09-01T02:46:42.939Z,0.00
2022-09-01T02:47:42.957Z,0.00
2022-09-01T02:48:42.917Z,0.00
2022-09-01T02:49:42.904Z,0.00
2022-09-01T02:50:42.897Z,0.00
2022-09-01T02:51:42.888Z,0.00
2022-09-01T02:52:42.875Z,0.00
2022-09-01T02:53:42.888Z,0.00
2022-09-01T02:54:42.859Z,0.00
2022-09-01T02:55:42.850Z,0.00
2022-09-01T02:56:42.838Z,0.00
2022-09-01T02:57:42.830Z,0.00
2022-09-01T02:58:42.821Z,0.00
2022-09-01T02:59:43.905Z,0.00
2022-09-01T03:00:42.798Z,0.00
2022-09-01T03:01:42.789Z,0.00
2022-09-01T03:02:42.769Z,0.00
2022-09-01T03:03:42.770Z,0.00
2022-09-01T03:04:42.815Z,0.00
2022-09-01T03:05:42.778Z,0.00
2022-09-01T03:06:42.732Z,0.00
2022-09-01T03:07:42.730Z,0.00
2022-09-01T03:08:42.719Z,0.00
2022-09-01T03:09:42.700Z,0.00
2022-09-01T03:10:42.691Z,0.00
2022-09-01T03:11:42.711Z,0.00
2022-09-01T03:12:42.672Z,0.00
2022-09-01T03:13:42.673Z,0.00
2022-09-01T03:14:42.651Z,0.00
2022-09-01T03:15:42.640Z,0.00
2022-09-01T03:16:42.649Z,0.00
2022-09-01T03:17:42.673Z,0.00
2022-09-01T03:18:42.611Z,0.00
2022-09-01T03:19:42.600Z,0.00
2022-09-01T03:20:42.584Z,0.00
2022-09-01T03:21:42.581Z,0.00
2022-09-01T03:22:42.571Z,0.00
2022-09-01T03:23:42.594Z,0.00
2022-09-01T03:24:42.544Z,0.00
2022-09-01T03:25:42.541Z,0.00
2022-09-01T03:26:42.532Z,0.00
2022-09-01T03:27:42.525Z,0.00
2022-09-01T03:28:42.505Z,0.00
2022-09-01T03:29:42.531Z,0.00
2022-09-01T03:30:42.488Z,0.00
2022-09-01T03:31:42.514Z,0.00
2022-09-01T03:32:42.475Z,0.00
2022-09-01T03:33:42.419Z,1.00
2022-09-01T03:34:42.395Z,1.00
2022-09-01T03:35:42.414Z,1.00
2022-09-01T03:36:42.376Z,1.00
2022-09-01T03:37:42.376Z,1.00
2022-09-01T03:38:42.367Z,1.00
2022-09-01T03:39:42.345Z,1.00
2022-09-01T03:40:42.373Z,2.00
2022-09-01T03:41:42.353Z,2.00
2022-09-01T03:42:42.319Z,2.00
2022-09-01T03:43:47.287Z,3.00
2022-09-01T03:44:43.297Z,2.00
2022-09-01T03:45:42.342Z,3.00
2022-09-01T03:46:42.268Z,4.00
2022-09-01T03:47:42.299Z,3.00
2022-09-01T03:48:42.250Z,4.00
2022-09-01T03:49:42.239Z,4.00
2022-09-01T03:50:42.237Z,4.00
2022-09-01T03:51:42.232Z,5.00
2022-09-01T03:52:42.212Z,5.00
2022-09-01T03:53:42.239Z,6.00
2022-09-01T03:54:42.197Z,6.00
2022-09-01T03:55:42.177Z,7.00
2022-09-01T03:56:42.170Z,7.00
2022-09-01T03:57:42.171Z,8.00
2022-09-01T03:58:42.149Z,8.00
2022-09-01T03:59:42.180Z,9.00
2022-09-01T04:00:42.153Z,9.00
2022-09-01T04:01:43.122Z,10.00
2022-09-01T04:02:42.158Z,10.00
2022-09-01T04:03:42.098Z,11.00
2022-09-01T04:04:42.090Z,11.00
2022-09-01T04:05:42.109Z,12.00
2022-09-01T04:06:42.074Z,13.00
2022-09-01T04:07:42.061Z,13.00
2022-09-01T04:08:42.052Z,13.00
2022-09-01T04:09:42.035Z,14.00
2022-09-01T04:10:42.023Z,14.00
2022-09-01T04:11:45.770Z,15.00
2022-09-01T04:12:42.004Z,15.00
2022-09-01T04:13:41.995Z,16.00
2022-09-01T04:14:41.993Z,16.00
2022-09-01T04:15:41.984Z,17.00
2022-09-01T04:16:42.086Z,21.00
2022-09-01T04:17:41.984Z,19.00
2022-09-01T04:18:41.953Z,20.00
2022-09-01T04:19:41.933Z,22.00
2022-09-01T04:20:41.915Z,23.00
2022-09-01T04:21:41.914Z,29.00
2022-09-01T04:22:41.905Z,27.00
2022-09-01T04:23:41.935Z,26.00
2022-09-01T04:24:44.936Z,24.00
2022-09-01T04:25:41.883Z,25.00
2022-09-01T04:26:41.867Z,26.00
2022-09-01T04:27:41.857Z,27.00
2022-09-01T04:28:41.836Z,28.00
2022-09-01T04:29:41.897Z,29.00
2022-09-01T04:30:41.827Z,30.00
2022-09-01T04:31:41.882Z,30.00
2022-09-01T04:32:41.806Z,31.00
2022-09-01T04:33:41.798Z,32.00
2022-09-01T04:34:41.861Z,32.00
2022-09-01T04:35:41.808Z,34.00
2022-09-01T04:36:41.768Z,34.00
2022-09-01T04:37:41.758Z,36.00
2022-09-01T04:38:41.743Z,36.00
2022-09-01T04:39:41.729Z,37.00
2022-09-01T04:40:41.780Z,38.00
2022-09-01T04:41:41.750Z,39.00
2022-09-01T04:42:41.714Z,40.00
2022-09-01T04:43:41.701Z,41.00
2022-09-01T04:44:41.690Z,42.00
2022-09-01T04:45:41.712Z,42.00
2022-09-01T04:46:41.672Z,43.00
2022-09-01T04:47:41.691Z,44.00
2022-09-01T04:48:41.641Z,45.00
2022-09-01T04:49:41.642Z,46.00
2022-09-01T04:50:41.623Z,47.00
2022-09-01T04:51:41.621Z,47.00
2022-09-01T04:52:41.604Z,49.00
2022-09-01T04:53:41.623Z,50.00
2022-09-01T04:54:41.583Z,51.00
2022-09-01T04:55:41.579Z,52.00
2022-09-01T04:56:41.565Z,54.00
2022-09-01T04:57:41.550Z,56.00
2022-09-01T04:58:41.544Z,59.00
2022-09-01T04:59:41.562Z,60.00
2022-09-01T05:00:41.602Z,60.00
2022-09-01T05:01:41.564Z,62.00
2022-09-01T05:02:41.504Z,63.00
2022-09-01T05:03:41.494Z,64.00
2022-09-01T05:04:41.474Z,68.00
2022-09-01T05:05:41.506Z,71.00
2022-09-01T05:06:41.461Z,73.00
2022-09-01T05:07:41.458Z,76.00
2022-09-01T05:08:41.446Z,90.00
2022-09-01T05:09:41.436Z,133.00
2022-09-01T05:10:41.428Z,197.00
2022-09-01T05:11:41.435Z,257.00
2022-09-01T05:12:41.397Z,289.00
2022-09-01T05:13:41.397Z,290.00
2022-09-01T05:14:41.387Z,435.00
2022-09-01T05:15:41.378Z,320.00
2022-09-01T05:16:41.408Z,230.00
2022-09-01T05:17:41.387Z,311.00
2022-09-01T05:18:41.348Z,204.00
2022-09-01T05:19:41.337Z,191.00
2022-09-01T05:20:41.319Z,199.00
2022-09-01T05:21:41.314Z,159.00
2022-09-01T05:22:41.306Z,138.00
2022-09-01T05:23:41.341Z,142.00
2022-09-01T05:24:42.253Z,170.00
2022-09-01T05:25:41.270Z,215.00
2022-09-01T05:26:41.258Z,220.00
2022-09-01T05:27:41.249Z,267.00
2022-09-01T05:28:41.229Z,141.00
2022-09-01T05:29:41.261Z,178.00
2022-09-01T05:30:41.216Z,248.00
2022-09-01T05:31:41.250Z,293.00
2022-09-01T05:32:41.200Z,354.00
2022-09-01T05:33:41.188Z,391.00
2022-09-01T05:34:41.178Z,345.00
2022-09-01T05:35:41.201Z,259.00
2022-09-01T05:36:41.152Z,231.00
2022-09-01T05:37:41.142Z,232.00
2022-09-01T05:38:41.143Z,227.00
2022-09-01T05:39:41.130Z,216.00
2022-09-01T05:40:41.215Z,206.00
2022-09-01T05:41:41.179Z,213.00
2022-09-01T05:42:41.092Z,230.00
2022-09-01T05:43:41.088Z,246.00
2022-09-01T05:44:41.070Z,257.00
2022-09-01T05:46:03.333Z,262.00
2022-09-01T05:46:42.120Z,267.00
2022-09-01T05:47:41.043Z,271.00
2022-09-01T05:48:41.033Z,278.00
2022-09-01T05:49:41.028Z,284.00
2022-09-01T05:50:41.010Z,291.00
2022-09-01T05:51:45.773Z,295.00
2022-09-01T05:52:42.022Z,298.00
2022-09-01T05:53:40.984Z,303.00
2022-09-01T05:54:40.972Z,309.00
2022-09-01T05:55:40.964Z,314.00
2022-09-01T05:56:43.530Z,319.00
2022-09-01T05:57:40.958Z,323.00
2022-09-01T05:59:41.919Z,327.00
2022-09-01T06:00:40.907Z,334.00
2022-09-01T06:01:41.019Z,341.00
2022-09-01T06:02:40.919Z,355.00
2022-09-01T06:03:40.875Z,373.00
2022-09-01T06:04:40.888Z,390.00
2022-09-01T06:05:40.848Z,407.00
2022-09-01T06:07:01.695Z,423.00
2022-09-01T06:07:41.836Z,437.00
2022-09-01T06:08:46.769Z,449.00
2022-09-01T06:09:41.843Z,457.00
2022-09-01T06:10:40.801Z,460.00
2022-09-01T06:11:40.797Z,461.00
2022-09-01T06:12:40.870Z,460.00
2022-09-01T06:13:40.778Z,460.00
2022-09-01T06:14:40.760Z,460.00
2022-09-01T06:15:40.780Z,460.00
2022-09-01T06:16:40.802Z,460.00
2022-09-01T06:17:40.732Z,461.00
2022-09-01T06:18:40.722Z,461.00
2022-09-01T06:19:40.709Z,458.00
2022-09-01T06:20:40.700Z,458.00
2022-09-01T06:21:40.719Z,458.00
2022-09-01T06:22:40.673Z,458.00
2022-09-01T06:23:40.671Z,459.00
2022-09-01T06:24:40.662Z,460.00
2022-09-01T06:25:40.653Z,463.00
2022-09-01T06:26:40.632Z,463.00
2022-09-01T06:27:40.650Z,466.00
2022-09-01T06:28:40.612Z,470.00
2022-09-01T06:29:40.604Z,475.00
2022-09-01T06:30:40.594Z,477.00
2022-09-01T06:31:40.646Z,479.00
2022-09-01T06:32:40.584Z,480.00
2022-09-01T06:33:40.595Z,482.00
2022-09-01T06:34:40.558Z,484.00
2022-09-01T06:35:40.545Z,487.00
2022-09-01T06:36:40.524Z,489.00
2022-09-01T06:37:40.527Z,493.00
2022-09-01T06:38:40.506Z,497.00
2022-09-01T06:39:40.536Z,502.00
2022-09-01T06:40:40.595Z,508.00
2022-09-01T06:41:40.491Z,513.00
2022-09-01T06:42:40.467Z,519.00
2022-09-01T06:43:40.466Z,524.00
2022-09-01T06:44:40.941Z,527.00
2022-09-01T06:45:40.475Z,531.00
2022-09-01T06:46:40.470Z,533.00
2022-09-01T06:47:40.427Z,535.00
2022-09-01T06:48:40.411Z,537.00
2022-09-01T06:49:40.398Z,539.00
2022-09-01T06:51:41.419Z,544.00
2022-09-01T06:53:41.361Z,551.00
2022-09-01T06:54:40.349Z,554.00
2022-09-01T06:55:40.340Z,560.00
2022-09-01T06:56:44.610Z,567.00
2022-09-01T06:58:41.301Z,576.00
2022-09-01T06:59:40.304Z,583.00
2022-09-01T07:00:40.291Z,589.00
2022-09-01T07:01:40.333Z,596.00
2022-09-01T07:02:40.275Z,603.00
2022-09-01T07:03:40.282Z,613.00
2022-09-01T07:04:40.243Z,622.00
2022-09-01T07:09:49.952Z,665.00
2022-09-01T07:11:19.572Z,674.00
2022-09-01T07:12:41.446Z,690.00
2022-09-01T07:14:15.313Z,698.00
2022-09-01T07:16:51.957Z,720.00
2022-09-01T07:17:42.305Z,728.00
2022-09-01T07:18:40.104Z,735.00
2022-09-01T07:19:55.362Z,742.00
2022-09-01T07:21:02.681Z,751.00
2022-09-01T07:21:42.497Z,761.00
2022-09-01T07:23:06.518Z,771.00
2022-09-01T07:24:07.966Z,783.00
2022-09-01T07:24:41.038Z,796.00
2022-09-01T07:26:48.100Z,823.00
2022-09-01T07:27:41.620Z,836.00
2022-09-01T07:28:40.426Z,851.00
2022-09-01T07:29:41.609Z,865.00
2022-09-01T07:30:40.667Z,879.00
2022-09-01T07:32:44.251Z,905.00
2022-09-01T07:33:42.062Z,917.00
2022-09-01T07:34:40.184Z,930.00
2022-09-01T07:36:24.960Z,941.00
2022-09-01T07:37:16.134Z,951.00
2022-09-01T07:39:49.121Z,982.00
2022-09-01T07:43:40.842Z,1022.00
2022-09-01T07:44:39.873Z,1031.00
2022-09-01T07:45:47.427Z,1041.00
2022-09-01T07:46:40.853Z,1049.00
2022-09-01T07:47:55.460Z,1060.00
2022-09-01T07:50:11.494Z,1080.00
2022-09-01T07:51:34.590Z,1088.00
2022-09-01T07:51:42.718Z,1097.00
2022-09-01T07:52:39.748Z,1107.00
2022-09-01T07:53:39.734Z,1115.00
2022-09-01T07:54:39.728Z,1124.00
2022-09-01T07:55:39.737Z,1134.00
2022-09-01T07:56:40.476Z,1144.00
2022-09-01T07:57:39.689Z,1130.00
2022-09-01T07:58:39.693Z,1068.00
2022-09-01T07:59:39.672Z,1028.00
2022-09-01T08:00:39.671Z,1000.00
2022-09-01T08:01:39.752Z,966.00
2022-09-01T08:02:39.688Z,1041.00
2022-09-01T08:03:39.632Z,1106.00
2022-09-01T08:04:39.621Z,1154.00
2022-09-01T08:05:39.611Z,1204.00
2022-09-01T08:06:39.687Z,1210.00
2022-09-01T08:07:51.635Z,1217.00
2022-09-01T08:08:40.582Z,1223.00
2022-09-01T08:09:44.157Z,1227.00
2022-09-01T08:10:40.565Z,1232.00
2022-09-01T08:12:01.218Z,1238.00
2022-09-01T08:12:40.563Z,1244.00
2022-09-01T08:13:41.883Z,1249.00
2022-09-01T08:14:39.522Z,1254.00
2022-09-01T08:15:40.987Z,1258.00
2022-09-01T08:16:52.055Z,1264.00
2022-09-01T08:17:56.094Z,1272.00
2022-09-01T08:18:54.349Z,1278.00
2022-09-01T08:19:40.466Z,1284.00
2022-09-01T08:20:39.459Z,1290.00
2022-09-01T08:21:39.448Z,1297.00
2022-09-01T08:22:39.438Z,1310.00
2022-09-01T08:23:39.428Z,1221.00
2022-09-01T08:24:39.454Z,1170.00
2022-09-01T08:25:39.407Z,1322.00
2022-09-01T08:26:39.397Z,1321.00
2022-09-01T08:27:39.380Z,1323.00
2022-09-01T08:28:39.627Z,1324.00
2022-09-01T08:29:39.369Z,1329.00
2022-09-01T08:30:39.384Z,1332.00
2022-09-01T08:31:39.377Z,1336.00
2022-09-01T08:32:39.335Z,1342.00
2022-09-01T08:33:39.321Z,1345.00
2022-09-01T08:34:39.310Z,1348.00
2022-09-01T08:35:39.302Z,1352.00
2022-09-01T08:36:39.320Z,1354.00
2022-09-01T08:37:39.282Z,1358.00
2022-09-01T08:38:39.272Z,1361.00
2022-09-01T08:39:39.256Z,1365.00
2022-09-01T08:40:39.325Z,1368.00
2022-09-01T08:41:39.248Z,1372.00
2022-09-01T08:42:39.255Z,1375.00
2022-09-01T08:43:39.215Z,1377.00
2022-09-01T08:44:39.212Z,1381.00
2022-09-01T08:45:39.197Z,1384.00
2022-09-01T08:46:39.262Z,1390.00
2022-09-01T08:47:58.331Z,1394.00
2022-09-01T08:49:43.775Z,1404.00
2022-09-01T08:50:39.149Z,1407.00
2022-09-01T08:51:39.239Z,1411.00
2022-09-01T08:52:39.130Z,1417.00
2022-09-01T08:53:39.111Z,1421.00
2022-09-01T08:54:39.140Z,1426.00
2022-09-01T08:55:39.407Z,1432.00
2022-09-01T08:56:39.089Z,1438.00
2022-09-01T08:57:39.072Z,1445.00
2022-09-01T08:58:40.209Z,1452.00
2022-09-01T08:59:39.238Z,1460.00
2022-09-01T09:00:39.087Z,1464.00
2022-09-01T09:01:39.057Z,1469.00
2022-09-01T09:02:39.056Z,1473.00
2022-09-01T09:03:42.092Z,1478.00
2022-09-01T09:04:39.004Z,1483.00
2022-09-01T09:05:38.995Z,1489.00
2022-09-01T09:06:39.006Z,1498.00
2022-09-01T09:07:38.972Z,1506.00
2022-09-01T09:08:38.955Z,1505.00
2022-09-01T09:09:38.953Z,1509.00
2022-09-01T09:10:38.937Z,1532.00
2022-09-01T09:11:38.927Z,1535.00
2022-09-01T09:12:48.917Z,1545.00
2022-09-01T09:13:39.904Z,1523.00
2022-09-01T09:14:38.899Z,1482.00
2022-09-01T09:15:38.898Z,1479.00
2022-09-01T09:16:38.875Z,1437.00
2022-09-01T09:17:38.859Z,1379.00
2022-09-01T09:18:40.204Z,1374.00
2022-09-01T09:19:38.840Z,1343.00
2022-09-01T09:20:38.830Z,1219.00
2022-09-01T09:21:38.819Z,1101.00
2022-09-01T09:22:38.807Z,1156.00
2022-09-01T09:23:38.800Z,1236.00
2022-09-01T09:24:40.346Z,1320.00
2022-09-01T09:25:38.779Z,1285.00
2022-09-01T09:26:45.995Z,1237.00
2022-09-01T09:27:39.761Z,1216.00
2022-09-01T09:28:38.751Z,1170.00
2022-09-01T09:29:38.742Z,1037.00
2022-09-01T09:30:38.804Z,997.00
2022-09-01T09:31:38.763Z,1028.00
2022-09-01T09:33:06.504Z,1082.00
2022-09-01T09:33:57.923Z,1136.00
2022-09-01T09:34:39.687Z,1151.00
2022-09-01T09:35:38.668Z,1168.00
2022-09-01T09:36:38.694Z,1096.00
2022-09-01T09:37:38.655Z,1065.00
2022-09-01T09:38:38.647Z,1105.00
2022-09-01T09:39:38.628Z,1061.00
2022-09-01T09:41:00.037Z,1048.00
2022-09-01T09:41:39.954Z,1019.00
2022-09-01T09:42:39.058Z,1059.00
2022-09-01T09:43:38.589Z,1057.00
2022-09-01T09:44:38.586Z,1077.00
2022-09-01T09:45:41.703Z,1026.00
2022-09-01T09:46:38.612Z,890.00
2022-09-01T09:47:45.814Z,851.00
2022-09-01T09:48:39.541Z,907.00
2022-09-01T09:49:44.211Z,945.00
2022-09-01T09:50:39.521Z,985.00
2022-09-01T09:51:38.511Z,1038.00
2022-09-01T09:52:38.501Z,1124.00
2022-09-01T09:53:38.520Z,1187.00
2022-09-01T09:54:38.480Z,1138.00
2022-09-01T09:55:38.463Z,1054.00
2022-09-01T09:56:38.467Z,1013.00
2022-09-01T09:57:38.444Z,1077.00
2022-09-01T09:58:38.435Z,1035.00
2022-09-01T09:59:57.587Z,1032.00
2022-09-01T10:00:39.414Z,1054.00
2022-09-01T10:01:38.443Z,976.00
2022-09-01T10:02:38.394Z,902.00
2022-09-01T10:03:38.412Z,971.00
2022-09-01T10:04:38.381Z,1061.00
2022-09-01T10:05:38.388Z,994.00
2022-09-01T10:06:38.357Z,794.00
2022-09-01T10:07:38.338Z,825.00
2022-09-01T10:08:38.329Z,933.00
2022-09-01T10:09:38.318Z,762.00
2022-09-01T10:10:38.309Z,735.00
2022-09-01T10:11:41.498Z,787.00
2022-09-01T10:12:38.290Z,781.00
2022-09-01T10:13:38.296Z,1036.00
2022-09-01T10:14:53.827Z,1258.00
2022-09-01T10:15:39.252Z,1397.00
2022-09-01T10:16:38.266Z,1467.00
2022-09-01T10:17:38.259Z,1495.00
2022-09-01T10:18:38.324Z,1440.00
2022-09-01T10:19:38.213Z,1437.00
2022-09-01T10:20:38.205Z,1535.00
2022-09-01T10:21:38.194Z,1382.00
2022-09-01T10:22:38.187Z,1340.00
2022-09-01T10:23:38.713Z,1549.00
2022-09-01T10:24:44.437Z,1591.00
2022-09-01T10:25:39.146Z,1596.00
2022-09-01T10:26:38.138Z,1602.00
2022-09-01T10:27:38.128Z,1584.00
2022-09-01T10:28:38.116Z,1550.00
2022-09-01T10:29:47.443Z,1589.00
2022-09-01T10:30:39.154Z,1662.00
2022-09-01T10:31:38.088Z,1667.00
2022-09-01T10:32:47.724Z,1606.00
2022-09-01T10:33:39.067Z,1353.00
2022-09-01T10:34:38.400Z,1056.00
2022-09-01T10:35:39.047Z,1122.00
2022-09-01T10:36:38.039Z,1373.00
2022-09-01T10:37:38.030Z,1511.00
2022-09-01T10:38:39.134Z,1530.00
2022-09-01T10:39:43.012Z,1584.00
2022-09-01T10:40:43.934Z,1576.00
2022-09-01T10:41:39.101Z,1586.00
2022-09-01T10:42:37.992Z,1611.00
2022-09-01T10:43:38.308Z,1537.00
2022-09-01T10:44:37.960Z,1528.00
2022-09-01T10:45:38.260Z,1440.00
2022-09-01T10:46:39.254Z,1333.00
2022-09-01T10:47:38.067Z,1370.00
2022-09-01T10:48:51.803Z,1216.00
2022-09-01T10:49:38.904Z,1251.00
2022-09-01T10:50:37.916Z,1294.00
2022-09-01T10:51:38.864Z,1311.00
2022-09-01T10:52:37.904Z,1325.00
2022-09-01T10:53:37.868Z,1309.00
2022-09-01T10:54:39.094Z,1305.00
2022-09-01T10:55:37.839Z,1357.00
2022-09-01T10:56:43.595Z,1273.00
2022-09-01T10:57:42.226Z,1280.00
2022-09-01T10:59:44.295Z,1236.00
2022-09-01T11:00:39.284Z,1123.00
2022-09-01T11:01:49.337Z,1208.00
2022-09-01T11:02:42.439Z,1302.00
2022-09-01T11:03:42.127Z,2020.00
2022-09-01T11:04:38.822Z,644.00
2022-09-01T11:05:37.733Z,579.00
2022-09-01T11:06:37.730Z,472.00
2022-09-01T11:08:38.705Z,432.00
2022-09-01T11:09:37.720Z,514.00
2022-09-01T11:10:37.691Z,772.00
2022-09-01T11:11:37.683Z,856.00
2022-09-01T11:12:37.683Z,1727.00
2022-09-01T11:13:37.645Z,1734.00
2022-09-01T11:14:37.647Z,1753.00
2022-09-01T11:15:37.657Z,1770.00
2022-09-01T11:16:53.213Z,1817.00
2022-09-01T11:17:38.659Z,1582.00
2022-09-01T11:18:37.611Z,1013.00
2022-09-01T11:19:37.589Z,948.00
2022-09-01T11:20:37.577Z,1516.00
2022-09-01T11:21:38.287Z,648.00
2022-09-01T11:22:38.115Z,868.00
2022-09-01T11:23:37.551Z,997.00
2022-09-01T11:24:37.822Z,831.00
2022-09-01T11:25:39.053Z,914.00
2022-09-01T11:26:37.518Z,1216.00
2022-09-01T11:27:37.530Z,1335.00
2022-09-01T11:28:37.501Z,890.00
2022-09-01T11:29:37.488Z,881.00
2022-09-01T11:30:37.472Z,495.00
2022-09-01T11:31:37.576Z,1360.00
2022-09-01T11:32:37.452Z,1449.00
2022-09-01T11:33:37.489Z,2672.00
2022-09-01T11:34:37.431Z,647.00
2022-09-01T11:35:37.434Z,1210.00
2022-09-01T11:36:37.406Z,1396.00
2022-09-01T11:37:37.405Z,1644.00
2022-09-01T11:38:37.396Z,1513.00
2022-09-01T11:39:37.416Z,1396.00
2022-09-01T11:40:37.404Z,1444.00
2022-09-01T11:41:37.357Z,1504.00
2022-09-01T11:42:37.348Z,1519.00
2022-09-01T11:43:37.337Z,1496.00
2022-09-01T11:44:37.330Z,1494.00
2022-09-01T11:45:37.387Z,1504.00
2022-09-01T11:46:37.298Z,1526.00
2022-09-01T11:47:37.297Z,1555.00
2022-09-01T11:48:37.280Z,1583.00
2022-09-01T11:49:37.269Z,1607.00
2022-09-01T11:50:37.259Z,1628.00
2022-09-01T11:51:37.281Z,1667.00
2022-09-01T11:52:37.240Z,1713.00
2022-09-01T11:53:37.233Z,1755.00
2022-09-01T11:54:37.221Z,1780.00
2022-09-01T11:55:37.211Z,1789.00
2022-09-01T11:56:37.194Z,1608.00
2022-09-01T11:57:37.224Z,1633.00
2022-09-01T11:58:37.174Z,640.00
2022-09-01T11:59:37.176Z,515.00
2022-09-01T12:00:37.163Z,474.00
2022-09-01T12:01:37.151Z,457.00
2022-09-01T12:02:37.332Z,439.00
2022-09-01T12:03:37.293Z,421.00
2022-09-01T12:04:37.118Z,407.00
2022-09-01T12:05:37.123Z,393.00
2022-09-01T12:06:37.096Z,375.00
2022-09-01T12:07:37.089Z,369.00
2022-09-01T12:08:37.073Z,376.00
2022-09-01T12:09:37.106Z,371.00
2022-09-01T12:10:37.059Z,358.00
2022-09-01T12:11:37.052Z,346.00
2022-09-01T12:12:37.034Z,339.00
2022-09-01T12:13:37.029Z,337.00
2022-09-01T12:15:02.026Z,334.00
2022-09-01T12:15:39.336Z,327.00
2022-09-01T12:16:38.019Z,322.00
2022-09-01T12:17:36.981Z,317.00
2022-09-01T12:18:36.972Z,312.00
2022-09-01T12:19:36.963Z,313.00
2022-09-01T12:20:36.964Z,336.00
2022-09-01T12:21:36.971Z,400.00
2022-09-01T12:22:36.933Z,436.00
2022-09-01T12:23:36.926Z,410.00
2022-09-01T12:24:36.905Z,557.00
2022-09-01T12:25:36.904Z,1043.00
2022-09-01T12:26:36.890Z,1434.00
2022-09-01T12:27:36.913Z,1419.00
2022-09-01T12:28:36.873Z,1396.00
2022-09-01T12:29:36.865Z,1366.00
2022-09-01T12:30:36.848Z,1211.00
2022-09-01T12:31:37.023Z,1070.00
2022-09-01T12:32:36.828Z,1307.00
2022-09-01T12:33:37.299Z,1320.00
2022-09-01T12:34:36.806Z,1321.00
2022-09-01T12:35:36.798Z,1322.00
2022-09-01T12:36:36.834Z,1334.00
2022-09-01T12:37:36.779Z,1354.00
2022-09-01T12:38:36.769Z,1369.00
2022-09-01T12:39:36.798Z,1383.00
2022-09-01T12:40:36.797Z,1399.00
2022-09-01T12:41:36.750Z,1423.00
2022-09-01T12:42:40.807Z,1440.00
2022-09-01T12:43:37.050Z,1455.00
2022-09-01T12:44:36.732Z,1471.00
2022-09-01T12:45:36.742Z,1493.00
2022-09-01T12:46:36.683Z,1509.00
2022-09-01T12:47:36.685Z,1522.00
2022-09-01T12:48:36.664Z,1529.00
2022-09-01T12:49:36.650Z,1533.00
2022-09-01T12:50:37.665Z,1756.00
2022-09-01T12:51:36.634Z,685.00
2022-09-01T12:52:36.624Z,480.00
2022-09-01T12:53:37.118Z,471.00
2022-09-01T12:54:36.697Z,484.00
2022-09-01T12:55:52.039Z,500.00
2022-09-01T12:56:37.617Z,514.00
2022-09-01T12:57:36.575Z,536.00
2022-09-01T12:58:36.557Z,512.00
2022-09-01T12:59:37.562Z,422.00
2022-09-01T13:00:36.538Z,372.00